createdAt,value
2016-09-19T00:00:25.211Z,0
2016-09-19T00:01:25.187Z,0
2016-09-19T00:02:25.176Z,0
2016-09-19T00:03:25.479Z,0
2016-09-19T00:04:24.839Z,0
2016-09-19T00:05:24.809Z,0
2016-09-19T00:06:25.135Z,0
2016-09-19T00:07:25.104Z,0
2016-09-19T00:08:24.854Z,0
2016-09-19T00:09:25.429Z,0
2016-09-19T00:10:24.485Z,0
2016-09-19T00:11:25.356Z,0
2016-09-19T00:12:25.357Z,0
2016-09-19T00:13:25.328Z,0
2016-09-19T00:14:25.329Z,0
2016-09-19T00:15:24.672Z,0
2016-09-19T00:16:24.648Z,0
2016-09-19T00:17:24.630Z,0
2016-09-19T00:18:24.937Z,0
2016-09-19T00:19:25.271Z,0
2016-09-19T00:20:25.236Z,0
2016-09-19T00:21:24.577Z,0
2016-09-19T00:22:24.993Z,0
2016-09-19T00:23:25.207Z,0
2016-09-19T00:24:25.186Z,0
2016-09-19T00:25:25.180Z,0
2016-09-19T00:26:25.169Z,0
2016-09-19T00:27:24.802Z,0
2016-09-19T00:28:24.811Z,0
2016-09-19T00:29:25.116Z,0
2016-09-19T00:30:24.771Z,0
2016-09-19T00:31:24.827Z,0
2016-09-19T00:32:24.767Z,0
2016-09-19T00:33:24.736Z,0
2016-09-19T00:34:25.114Z,0
2016-09-19T00:35:24.405Z,0
2016-09-19T00:36:24.484Z,0
2016-09-19T00:37:24.698Z,0
2016-09-19T00:38:24.667Z,0
2016-09-19T00:39:24.332Z,0
2016-09-19T00:40:24.021Z,0
2016-09-19T00:41:24.709Z,0
2016-09-19T00:42:24.756Z,0
2016-09-19T00:43:24.605Z,0
2016-09-19T00:44:24.273Z,0
2016-09-19T00:45:24.264Z,0
2016-09-19T00:46:24.561Z,0
2016-09-19T00:47:24.255Z,0
2016-09-19T00:48:24.928Z,0
2016-09-19T00:49:24.197Z,0
2016-09-19T00:50:24.877Z,0
2016-09-19T00:51:24.814Z,0
2016-09-19T00:52:24.167Z,0
2016-09-19T00:53:24.467Z,0
2016-09-19T00:54:24.149Z,0
2016-09-19T00:55:24.425Z,0
2016-09-19T00:56:24.431Z,0
2016-09-19T00:57:24.394Z,0
2016-09-19T00:58:24.081Z,0
2016-09-19T00:59:24.386Z,0
2016-09-19T01:00:24.680Z,0
2016-09-19T01:01:24.360Z,0
2016-09-19T01:02:23.999Z,0
2016-09-19T01:03:24.014Z,0
2016-09-19T01:04:23.685Z,0
2016-09-19T01:05:24.620Z,0
2016-09-19T01:06:24.655Z,0
2016-09-19T01:07:24.260Z,0
2016-09-19T01:08:24.248Z,0
2016-09-19T01:09:24.228Z,0
2016-09-19T01:10:23.946Z,0
2016-09-19T01:11:24.228Z,0
2016-09-19T01:12:24.199Z,0
2016-09-19T01:13:24.517Z,0
2016-09-19T01:14:23.511Z,0
2016-09-19T01:15:23.181Z,0
2016-09-19T01:16:24.160Z,0
2016-09-19T01:17:24.446Z,0
2016-09-19T01:18:24.114Z,0
2016-09-19T01:19:24.100Z,0
2016-09-19T01:20:24.408Z,0
2016-09-19T01:21:23.417Z,0
2016-09-19T01:22:24.050Z,0
2016-09-19T01:23:24.359Z,0
2016-09-19T01:24:24.044Z,0
2016-09-19T01:25:24.030Z,0
2016-09-19T01:26:24.081Z,0
2016-09-19T01:27:24.000Z,0
2016-09-19T01:28:23.653Z,0
2016-09-19T01:29:24.277Z,0
2016-09-19T01:30:23.277Z,0
2016-09-19T01:31:23.627Z,0
2016-09-19T01:32:24.010Z,0
2016-09-19T01:33:23.566Z,0
2016-09-19T01:34:23.574Z,0
2016-09-19T01:35:23.216Z,0
2016-09-19T01:36:23.877Z,0
2016-09-19T01:37:23.517Z,0
2016-09-19T01:38:23.521Z,0
2016-09-19T01:39:23.169Z,0
2016-09-19T01:40:23.467Z,0
2016-09-19T01:41:23.460Z,0
2016-09-19T01:42:23.766Z,0
2016-09-19T01:43:23.435Z,0
2016-09-19T01:44:23.417Z,0
2016-09-19T01:45:24.026Z,0
2016-09-19T01:46:23.707Z,0
2016-09-19T01:47:23.999Z,0
2016-09-19T01:48:24.003Z,0
2016-09-19T01:49:23.355Z,0
2016-09-19T01:50:23.655Z,0
2016-09-19T01:51:23.700Z,0
2016-09-19T01:52:23.615Z,0
2016-09-19T01:53:24.037Z,0
2016-09-19T01:54:23.445Z,0
2016-09-19T01:55:23.599Z,0
2016-09-19T01:56:23.910Z,0
2016-09-19T01:57:23.907Z,0
2016-09-19T01:58:23.538Z,0
2016-09-19T01:59:23.868Z,0
2016-09-19T02:00:23.512Z,0
2016-09-19T02:01:23.169Z,0
2016-09-19T02:02:23.166Z,0
2016-09-19T02:03:23.518Z,0
2016-09-19T02:04:23.182Z,0
2016-09-19T02:05:23.768Z,0
2016-09-19T02:06:23.749Z,0
2016-09-19T02:07:23.737Z,0
2016-09-19T02:08:23.726Z,0
2016-09-19T02:09:23.065Z,0
2016-09-19T02:10:23.378Z,0
2016-09-19T02:11:23.356Z,0
2016-09-19T02:12:22.705Z,0
2016-09-19T02:13:23.168Z,0
2016-09-19T02:14:23.618Z,0
2016-09-19T02:15:23.305Z,0
2016-09-19T02:16:23.298Z,0
2016-09-19T02:17:22.946Z,0
2016-09-19T02:18:23.259Z,0
2016-09-19T02:19:23.240Z,0
2016-09-19T02:20:23.223Z,0
2016-09-19T02:21:22.559Z,0
2016-09-19T02:22:22.876Z,0
2016-09-19T02:23:22.633Z,0
2016-09-19T02:24:23.494Z,0
2016-09-19T02:25:22.825Z,0
2016-09-19T02:26:23.577Z,0
2016-09-19T02:27:23.149Z,0
2016-09-19T02:28:22.798Z,0
2016-09-19T02:29:23.112Z,0
2016-09-19T02:30:23.196Z,0
2016-09-19T02:31:23.123Z,0
2016-09-19T02:32:22.796Z,0
2016-09-19T02:33:22.727Z,0
2016-09-19T02:34:22.771Z,0
2016-09-19T02:35:23.033Z,0
2016-09-19T02:36:23.325Z,0
2016-09-19T02:37:23.005Z,0
2016-09-19T02:38:23.359Z,0
2016-09-19T02:39:23.278Z,0
2016-09-19T02:40:23.304Z,0
2016-09-19T02:41:22.589Z,0
2016-09-19T02:42:22.582Z,0
2016-09-19T02:43:23.239Z,0
2016-09-19T02:44:23.210Z,0
2016-09-19T02:45:22.555Z,0
2016-09-19T02:46:23.163Z,0
2016-09-19T02:47:22.830Z,0
2016-09-19T02:48:22.816Z,0
2016-09-19T02:49:23.160Z,0
2016-09-19T02:50:22.544Z,0
2016-09-19T02:51:22.239Z,0
2016-09-19T02:52:22.770Z,0
2016-09-19T02:53:22.747Z,0
2016-09-19T02:54:23.060Z,0
2016-09-19T02:55:23.115Z,0
2016-09-19T02:56:22.716Z,0
2016-09-19T02:57:22.698Z,0
2016-09-19T02:58:22.686Z,0
2016-09-19T02:59:22.666Z,0
2016-09-19T03:00:22.641Z,0
2016-09-19T03:01:21.656Z,0
2016-09-19T03:02:21.967Z,0
2016-09-19T03:03:22.607Z,0
2016-09-19T03:04:22.596Z,0
2016-09-19T03:05:22.888Z,0
2016-09-19T03:06:22.580Z,0
2016-09-19T03:07:22.217Z,0
2016-09-19T03:08:22.856Z,0
2016-09-19T03:09:22.510Z,0
2016-09-19T03:10:22.268Z,0
2016-09-19T03:11:22.799Z,0
2016-09-19T03:12:21.835Z,0
2016-09-19T03:13:22.794Z,0
2016-09-19T03:14:22.156Z,0
2016-09-19T03:15:22.426Z,0
2016-09-19T03:16:21.777Z,0
2016-09-19T03:17:22.408Z,0
2016-09-19T03:18:22.402Z,0
2016-09-19T03:19:22.367Z,0
2016-09-19T03:20:22.108Z,0
2016-09-19T03:21:22.014Z,0
2016-09-19T03:22:22.632Z,0
2016-09-19T03:23:22.346Z,0
2016-09-19T03:24:21.980Z,0
2016-09-19T03:25:21.973Z,0
2016-09-19T03:26:21.965Z,0
2016-09-19T03:27:22.241Z,0
2016-09-19T03:28:22.351Z,0
2016-09-19T03:29:22.325Z,0
2016-09-19T03:30:21.896Z,0
2016-09-19T03:31:22.199Z,0
2016-09-19T03:32:22.283Z,0
2016-09-19T03:33:22.184Z,0
2016-09-19T03:34:22.156Z,0
2016-09-19T03:35:22.455Z,0
2016-09-19T03:36:22.439Z,0
2016-09-19T03:37:22.102Z,0
2016-09-19T03:38:22.510Z,0
2016-09-19T03:39:21.431Z,0
2016-09-19T03:40:22.088Z,0
2016-09-19T03:41:21.748Z,0
2016-09-19T03:42:22.358Z,0
2016-09-19T03:43:21.695Z,0
2016-09-19T03:44:22.014Z,0
2016-09-19T03:45:21.673Z,0
2016-09-19T03:46:21.979Z,0
2016-09-19T03:47:21.970Z,0
2016-09-19T03:48:22.369Z,0
2016-09-19T03:49:21.928Z,0
2016-09-19T03:50:22.257Z,0
2016-09-19T03:51:21.899Z,0
2016-09-19T03:52:22.219Z,0
2016-09-19T03:53:21.876Z,0
2016-09-19T03:54:22.187Z,0
2016-09-19T03:55:21.206Z,0
2016-09-19T03:56:21.182Z,0
2016-09-19T03:57:21.818Z,0
2016-09-19T03:58:21.179Z,0
2016-09-19T03:59:21.545Z,0
2016-09-19T04:00:21.765Z,0
2016-09-19T04:01:21.448Z,0
2016-09-19T04:02:21.426Z,0
2016-09-19T04:03:21.495Z,0
2016-09-19T04:04:21.739Z,0
2016-09-19T04:05:21.709Z,0
2016-09-19T04:06:21.464Z,0
2016-09-19T04:07:21.742Z,0
2016-09-19T04:08:21.333Z,0
2016-09-19T04:09:21.969Z,0
2016-09-19T04:10:21.316Z,0
2016-09-19T04:11:21.625Z,0
2016-09-19T04:12:21.276Z,0
2016-09-19T04:13:21.595Z,0
2016-09-19T04:14:20.927Z,0
2016-09-19T04:15:21.295Z,0
2016-09-19T04:16:21.886Z,0
2016-09-19T04:17:21.534Z,0
2016-09-19T04:18:21.202Z,0
2016-09-19T04:19:21.216Z,0
2016-09-19T04:20:21.800Z,0
2016-09-19T04:21:21.477Z,0
2016-09-19T04:22:21.458Z,0
2016-09-19T04:23:21.506Z,0
2016-09-19T04:24:21.207Z,0
2016-09-19T04:25:20.780Z,0
2016-09-19T04:26:21.748Z,0
2016-09-19T04:27:21.456Z,0
2016-09-19T04:28:21.417Z,0
2016-09-19T04:29:21.347Z,0
2016-09-19T04:30:21.665Z,0
2016-09-19T04:31:21.038Z,0
2016-09-19T04:32:21.320Z,0
2016-09-19T04:33:20.705Z,0
2016-09-19T04:34:20.865Z,0
2016-09-19T04:35:21.628Z,0
2016-09-19T04:36:20.937Z,0
2016-09-19T04:37:20.978Z,0
2016-09-19T04:38:21.626Z,0
2016-09-19T04:39:21.257Z,0
2016-09-19T04:40:21.506Z,0
2016-09-19T04:41:20.846Z,0
2016-09-19T04:42:21.489Z,0
2016-09-19T04:43:21.489Z,0
2016-09-19T04:44:21.456Z,0
2016-09-19T04:45:21.134Z,0
2016-09-19T04:46:21.425Z,0
2016-09-19T04:47:20.817Z,0
2016-09-19T04:48:21.060Z,0
2016-09-19T04:49:20.845Z,0
2016-09-19T04:50:21.036Z,0
2016-09-19T04:51:20.782Z,0
2016-09-19T04:52:21.360Z,0
2016-09-19T04:53:20.809Z,0
2016-09-19T04:54:20.961Z,0
2016-09-19T04:55:20.992Z,0
2016-09-19T04:56:20.627Z,0
2016-09-19T04:57:21.257Z,0
2016-09-19T04:58:20.609Z,0
2016-09-19T04:59:20.945Z,0
2016-09-19T05:00:20.578Z,0
2016-09-19T05:01:20.896Z,0
2016-09-19T05:02:19.908Z,0
2016-09-19T05:03:20.890Z,0
2016-09-19T05:04:20.327Z,0
2016-09-19T05:05:21.159Z,0
2016-09-19T05:06:20.826Z,0
2016-09-19T05:07:20.485Z,0
2016-09-19T05:08:20.776Z,0
2016-09-19T05:09:20.176Z,0
2016-09-19T05:10:20.440Z,0
2016-09-19T05:11:20.734Z,0
2016-09-19T05:12:20.397Z,0
2016-09-19T05:13:20.074Z,0
2016-09-19T05:14:20.361Z,0
2016-09-19T05:15:20.694Z,0
2016-09-19T05:16:20.695Z,0
2016-09-19T05:17:20.651Z,0
2016-09-19T05:18:20.731Z,0
2016-09-19T05:19:20.350Z,0
2016-09-19T05:20:20.600Z,0
2016-09-19T05:21:20.908Z,0
2016-09-19T05:22:20.881Z,0
2016-09-19T05:23:20.579Z,0
2016-09-19T05:24:20.221Z,0
2016-09-19T05:25:20.223Z,0
2016-09-19T05:26:20.817Z,0
2016-09-19T05:27:20.492Z,0
2016-09-19T05:28:20.149Z,0
2016-09-19T05:29:20.466Z,0
2016-09-19T05:30:20.117Z,0
2016-09-19T05:31:20.120Z,0
2016-09-19T05:32:20.419Z,0
2016-09-19T05:33:20.400Z,0
2016-09-19T05:34:19.745Z,0
2016-09-19T05:35:20.056Z,0
2016-09-19T05:36:19.837Z,0
2016-09-19T05:37:20.016Z,0
2016-09-19T05:38:20.010Z,5
2016-09-19T05:39:19.668Z,5
2016-09-19T05:40:19.975Z,5
2016-09-19T05:41:19.966Z,5
2016-09-19T05:42:19.983Z,5
2016-09-19T05:43:20.616Z,5
2016-09-19T05:44:19.927Z,5
2016-09-19T05:45:20.590Z,5
2016-09-19T05:46:20.288Z,5
2016-09-19T05:47:20.186Z,5
2016-09-19T05:48:20.218Z,5
2016-09-19T05:49:20.506Z,5
2016-09-19T05:50:20.149Z,5
2016-09-19T05:51:20.510Z,5
2016-09-19T05:52:20.451Z,10
2016-09-19T05:53:19.776Z,10
2016-09-19T05:54:20.108Z,10
2016-09-19T05:55:19.773Z,10
2016-09-19T05:56:19.761Z,10
2016-09-19T05:57:19.720Z,10
2016-09-19T05:58:20.051Z,15
2016-09-19T05:59:20.020Z,15
2016-09-19T06:00:19.997Z,15
2016-09-19T06:01:19.685Z,15
2016-09-19T06:02:19.980Z,15
2016-09-19T06:03:20.286Z,20
2016-09-19T06:04:19.639Z,20
2016-09-19T06:05:19.624Z,20
2016-09-19T06:06:19.924Z,20
2016-09-19T06:07:19.895Z,20
2016-09-19T06:08:19.968Z,20
2016-09-19T06:09:20.197Z,20
2016-09-19T06:10:19.865Z,20
2016-09-19T06:11:19.546Z,20
2016-09-19T06:12:19.547Z,25
2016-09-19T06:13:20.210Z,25
2016-09-19T06:14:19.846Z,25
2016-09-19T06:15:19.796Z,30
2016-09-19T06:16:19.487Z,30
2016-09-19T06:17:19.105Z,30
2016-09-19T06:18:19.097Z,30
2016-09-19T06:19:19.784Z,35
2016-09-19T06:20:18.810Z,35
2016-09-19T06:21:19.389Z,40
2016-09-19T06:22:19.992Z,45
2016-09-19T06:23:19.345Z,45
2016-09-19T06:24:19.344Z,50
2016-09-19T06:25:19.339Z,50
2016-09-19T06:26:19.966Z,60
2016-09-19T06:27:19.924Z,65
2016-09-19T06:28:18.965Z,70
2016-09-19T06:29:18.618Z,70
2016-09-19T06:30:19.559Z,75
2016-09-19T06:31:19.546Z,75
2016-09-19T06:32:18.888Z,75
2016-09-19T06:33:19.213Z,80
2016-09-19T06:34:19.208Z,80
2016-09-19T06:35:19.883Z,80
2016-09-19T06:36:19.213Z,85
2016-09-19T06:37:18.817Z,85
2016-09-19T06:38:19.146Z,90
2016-09-19T06:39:19.809Z,90
2016-09-19T06:40:19.429Z,95
2016-09-19T06:41:19.095Z,95
2016-09-19T06:42:19.728Z,95
2016-09-19T06:43:19.074Z,95
2016-09-19T06:44:19.034Z,100
2016-09-19T06:45:19.029Z,105
2016-09-19T06:46:18.709Z,115
2016-09-19T06:47:19.336Z,135
2016-09-19T06:48:19.308Z,140
2016-09-19T06:49:18.985Z,140
2016-09-19T06:50:18.969Z,140
2016-09-19T06:51:19.606Z,140
2016-09-19T06:52:18.611Z,140
2016-09-19T06:53:18.908Z,145
2016-09-19T06:54:19.233Z,145
2016-09-19T06:55:19.216Z,145
2016-09-19T06:56:18.960Z,145
2016-09-19T06:57:18.884Z,145
2016-09-19T06:58:19.204Z,145
2016-09-19T06:59:18.842Z,150
2016-09-19T07:00:18.522Z,150
2016-09-19T07:01:19.168Z,150
2016-09-19T07:02:18.507Z,150
2016-09-19T07:03:19.139Z,150
2016-09-19T07:04:19.106Z,150
2016-09-19T07:05:18.474Z,155
2016-09-19T07:06:19.407Z,150
2016-09-19T07:07:19.088Z,150
2016-09-19T07:08:18.804Z,150
2016-09-19T07:09:18.756Z,150
2016-09-19T07:10:18.742Z,150
2016-09-19T07:11:18.818Z,150
2016-09-19T07:12:19.463Z,150
2016-09-19T07:13:19.162Z,150
2016-09-19T07:14:18.696Z,150
2016-09-19T07:15:18.360Z,155
2016-09-19T07:16:19.119Z,155
2016-09-19T07:17:19.009Z,155
2016-09-19T07:18:18.979Z,160
2016-09-19T07:19:19.304Z,160
2016-09-19T07:20:18.999Z,160
2016-09-19T07:21:19.255Z,160
2016-09-19T07:22:18.945Z,165
2016-09-19T07:23:18.624Z,165
2016-09-19T07:24:18.716Z,165
2016-09-19T07:25:18.696Z,165
2016-09-19T07:26:18.957Z,165
2016-09-19T07:27:18.254Z,170
2016-09-19T07:28:18.567Z,175
2016-09-19T07:29:18.877Z,170
2016-09-19T07:30:18.238Z,180
2016-09-19T07:31:18.214Z,175
2016-09-19T07:32:18.517Z,180
2016-09-19T07:33:18.518Z,180
2016-09-19T07:34:18.843Z,185
2016-09-19T07:35:18.185Z,185
2016-09-19T07:36:19.135Z,190
2016-09-19T07:37:18.227Z,195
2016-09-19T07:38:18.472Z,195
2016-09-19T07:39:18.165Z,195
2016-09-19T07:40:18.484Z,200
2016-09-19T07:41:18.466Z,200
2016-09-19T07:42:18.770Z,205
2016-09-19T07:43:18.853Z,215
2016-09-19T07:44:19.097Z,220
2016-09-19T07:45:19.057Z,225
2016-09-19T07:46:18.538Z,245
2016-09-19T07:47:18.727Z,700
2016-09-19T07:48:18.739Z,1465
2016-09-19T07:49:18.537Z,1640
2016-09-19T07:50:18.738Z,1660
2016-09-19T07:51:18.453Z,1670
2016-09-19T07:52:18.081Z,1730
2016-09-19T07:53:19.131Z,1775
2016-09-19T07:54:18.082Z,1725
2016-09-19T07:55:18.727Z,1600
2016-09-19T07:56:18.736Z,1600
2016-09-19T07:57:18.200Z,1690
2016-09-19T07:58:18.399Z,1780
2016-09-19T07:59:18.703Z,1765
2016-09-19T08:00:18.477Z,1650
2016-09-19T08:01:18.054Z,1620
2016-09-19T08:02:18.450Z,1630
2016-09-19T08:03:18.693Z,1725
2016-09-19T08:04:17.730Z,1790
2016-09-19T08:05:18.109Z,1745
2016-09-19T08:06:18.693Z,1660
2016-09-19T08:07:18.412Z,1615
2016-09-19T08:08:18.715Z,1590
2016-09-19T08:09:17.738Z,1615
2016-09-19T08:10:18.413Z,1720
2016-09-19T08:11:18.705Z,1745
2016-09-19T08:12:18.045Z,1770
2016-09-19T08:13:18.073Z,1815
2016-09-19T08:14:18.704Z,1760
2016-09-19T08:15:18.701Z,1705
2016-09-19T08:16:19.029Z,1675
2016-09-19T08:17:18.366Z,1675
2016-09-19T08:18:18.373Z,1640
2016-09-19T08:19:19.131Z,1650
2016-09-19T08:20:18.391Z,1755
2016-09-19T08:21:18.119Z,1820
2016-09-19T08:22:18.392Z,1715
2016-09-19T08:23:18.714Z,1655
2016-09-19T08:24:18.072Z,1730
2016-09-19T08:25:19.085Z,1770
2016-09-19T08:26:18.724Z,1665
2016-09-19T08:27:18.398Z,1660
2016-09-19T08:28:19.023Z,1720
2016-09-19T08:29:18.090Z,1715
2016-09-19T08:30:19.044Z,1655
2016-09-19T08:31:18.068Z,1670
2016-09-19T08:32:18.487Z,1730
2016-09-19T08:33:18.742Z,1720
2016-09-19T08:34:19.053Z,1700
2016-09-19T08:35:18.105Z,1750
2016-09-19T08:36:18.724Z,1695
2016-09-19T08:37:18.397Z,1655
2016-09-19T08:38:19.067Z,1690
2016-09-19T08:39:19.066Z,1715
2016-09-19T08:40:19.099Z,1730
2016-09-19T08:41:18.403Z,1755
2016-09-19T08:42:18.737Z,1690
2016-09-19T08:43:18.722Z,1625
2016-09-19T08:44:19.073Z,1675
2016-09-19T08:45:18.750Z,1685
2016-09-19T08:46:19.084Z,1660
2016-09-19T08:47:18.165Z,1705
2016-09-19T08:48:17.790Z,1745
2016-09-19T08:49:18.488Z,1700
2016-09-19T08:50:18.447Z,1685
2016-09-19T08:51:19.127Z,1780
2016-09-19T08:52:18.455Z,1765
2016-09-19T08:53:19.077Z,1715
2016-09-19T08:54:19.083Z,1820
2016-09-19T08:55:19.080Z,1765
2016-09-19T08:56:18.436Z,1695
2016-09-19T08:57:18.517Z,1790
2016-09-19T08:58:18.851Z,1800
2016-09-19T08:59:18.445Z,1745
2016-09-19T09:00:19.097Z,1630
2016-09-19T09:01:17.832Z,1585
2016-09-19T09:02:18.463Z,1710
2016-09-19T09:03:18.467Z,2000
2016-09-19T09:04:18.794Z,1800
2016-09-19T09:05:18.158Z,1590
2016-09-19T09:06:18.543Z,1615
2016-09-19T09:07:18.803Z,1555
2016-09-19T09:08:18.484Z,1460
2016-09-19T09:09:18.892Z,1555
2016-09-19T09:10:18.493Z,1705
2016-09-19T09:11:18.813Z,1610
2016-09-19T09:12:18.824Z,1500
2016-09-19T09:13:19.133Z,1620
2016-09-19T09:14:18.534Z,1655
2016-09-19T09:15:18.811Z,1650
2016-09-19T09:16:18.497Z,1695
2016-09-19T09:17:18.535Z,1570
2016-09-19T09:18:18.832Z,1595
2016-09-19T09:19:19.163Z,1620
2016-09-19T09:20:18.525Z,1555
2016-09-19T09:21:18.833Z,1500
2016-09-19T09:22:18.190Z,1450
2016-09-19T09:23:18.333Z,1575
2016-09-19T09:24:18.512Z,1575
2016-09-19T09:25:18.885Z,1430
2016-09-19T09:26:18.503Z,1425
2016-09-19T09:27:19.169Z,1535
2016-09-19T09:28:18.294Z,1580
2016-09-19T09:29:18.646Z,1520
2016-09-19T09:30:18.273Z,1450
2016-09-19T09:31:18.307Z,1425
2016-09-19T09:32:18.541Z,1380
2016-09-19T09:33:18.854Z,1400
2016-09-19T09:34:18.855Z,1455
2016-09-19T09:35:19.165Z,1400
2016-09-19T09:36:18.534Z,1380
2016-09-19T09:37:18.227Z,1440
2016-09-19T09:38:18.592Z,1440
2016-09-19T09:39:18.604Z,1385
2016-09-19T09:40:18.580Z,1470
2016-09-19T09:41:18.570Z,1400
2016-09-19T09:42:18.607Z,1340
2016-09-19T09:43:18.592Z,1400
2016-09-19T09:44:18.879Z,1335
2016-09-19T09:45:18.244Z,1305
2016-09-19T09:46:18.576Z,1275
2016-09-19T09:47:18.233Z,1200
2016-09-19T09:48:18.235Z,1335
2016-09-19T09:49:18.239Z,1305
2016-09-19T09:50:19.312Z,1310
2016-09-19T09:51:18.247Z,1315
2016-09-19T09:52:18.555Z,1250
2016-09-19T09:53:18.615Z,1270
2016-09-19T09:54:18.873Z,1280
2016-09-19T09:55:18.892Z,1235
2016-09-19T09:56:19.197Z,1190
2016-09-19T09:57:18.896Z,1180
2016-09-19T09:58:18.574Z,1225
2016-09-19T09:59:18.553Z,1210
2016-09-19T10:00:18.634Z,1180
2016-09-19T10:01:18.559Z,1095
2016-09-19T10:02:18.892Z,1165
2016-09-19T10:03:18.567Z,1215
2016-09-19T10:04:18.289Z,1185
2016-09-19T10:05:18.578Z,1200
2016-09-19T10:06:18.895Z,1190
2016-09-19T10:07:18.575Z,1180
2016-09-19T10:08:18.905Z,1160
2016-09-19T10:09:18.610Z,1080
2016-09-19T10:10:18.896Z,1130
2016-09-19T10:11:18.553Z,1105
2016-09-19T10:12:18.552Z,1180
2016-09-19T10:13:18.554Z,1125
2016-09-19T10:14:18.585Z,1045
2016-09-19T10:15:18.926Z,1130
2016-09-19T10:16:17.929Z,1085
2016-09-19T10:17:18.644Z,1095
2016-09-19T10:18:18.247Z,1075
2016-09-19T10:19:19.276Z,1040
2016-09-19T10:20:18.238Z,1005
2016-09-19T10:21:18.876Z,1035
2016-09-19T10:22:19.279Z,1040
2016-09-19T10:23:18.535Z,950
2016-09-19T10:24:19.176Z,995
2016-09-19T10:25:19.194Z,975
2016-09-19T10:26:18.843Z,880
2016-09-19T10:27:18.532Z,670
2016-09-19T10:28:18.854Z,495
2016-09-19T10:29:18.853Z,445
2016-09-19T10:30:18.854Z,450
2016-09-19T10:31:18.568Z,425
2016-09-19T10:32:18.836Z,345
2016-09-19T10:33:18.502Z,420
2016-09-19T10:34:18.515Z,280
2016-09-19T10:35:18.512Z,285
2016-09-19T10:36:18.171Z,280
2016-09-19T10:37:18.203Z,285
2016-09-19T10:38:18.160Z,335
2016-09-19T10:39:18.810Z,285
2016-09-19T10:40:18.199Z,310
2016-09-19T10:41:18.170Z,295
2016-09-19T10:42:18.477Z,300
2016-09-19T10:43:18.798Z,280
2016-09-19T10:44:18.186Z,285
2016-09-19T10:45:18.475Z,255
2016-09-19T10:46:18.501Z,260
2016-09-19T10:47:18.117Z,255
2016-09-19T10:48:19.092Z,250
2016-09-19T10:49:18.765Z,245
2016-09-19T10:50:18.757Z,245
2016-09-19T10:51:18.415Z,245
2016-09-19T10:52:18.404Z,240
2016-09-19T10:53:18.103Z,230
2016-09-19T10:54:18.735Z,225
2016-09-19T10:55:19.038Z,225
2016-09-19T10:56:18.748Z,220
2016-09-19T10:57:18.406Z,220
2016-09-19T10:58:19.126Z,215
2016-09-19T10:59:18.374Z,215
2016-09-19T11:00:18.418Z,210
2016-09-19T11:01:18.448Z,210
2016-09-19T11:02:18.663Z,205
2016-09-19T11:04:18.666Z,200
2016-09-19T11:05:18.656Z,205
2016-09-19T11:06:18.649Z,210
2016-09-19T11:07:18.631Z,210
2016-09-19T11:08:18.630Z,215
2016-09-19T11:09:18.026Z,225
2016-09-19T11:10:18.601Z,225
2016-09-19T11:11:18.273Z,215
2016-09-19T11:12:17.958Z,215
2016-09-19T11:13:18.580Z,210
2016-09-19T11:14:18.730Z,205
2016-09-19T11:15:18.240Z,205
2016-09-19T11:16:17.922Z,200
2016-09-19T11:17:18.633Z,200
2016-09-19T11:18:17.924Z,200
2016-09-19T11:19:17.907Z,200
2016-09-19T11:20:18.563Z,195
2016-09-19T11:21:18.537Z,195
2016-09-19T11:22:18.231Z,190
2016-09-19T11:23:18.220Z,185
2016-09-19T11:24:19.064Z,180
2016-09-19T11:25:17.868Z,175
2016-09-19T11:26:18.864Z,170
2016-09-19T11:27:17.828Z,165
2016-09-19T11:28:18.877Z,165
2016-09-19T11:29:18.165Z,160
2016-09-19T11:30:18.453Z,165
2016-09-19T11:31:18.447Z,155
2016-09-19T11:32:18.499Z,155
2016-09-19T11:33:18.095Z,155
2016-09-19T11:34:18.087Z,155
2016-09-19T11:35:18.734Z,155
2016-09-19T11:36:18.070Z,160
2016-09-19T11:37:18.374Z,160
2016-09-19T11:38:18.385Z,160
2016-09-19T11:39:18.386Z,165
2016-09-19T11:40:18.159Z,170
2016-09-19T11:41:18.036Z,170
2016-09-19T11:42:18.340Z,175
2016-09-19T11:43:18.352Z,180
2016-09-19T11:44:17.362Z,180
2016-09-19T11:45:18.334Z,185
2016-09-19T11:46:18.630Z,185
2016-09-19T11:47:17.996Z,190
2016-09-19T11:48:18.293Z,190
2016-09-19T11:49:17.963Z,195
2016-09-19T11:50:18.028Z,200
2016-09-19T11:51:18.592Z,200
2016-09-19T11:52:17.974Z,205
2016-09-19T11:53:18.255Z,210
2016-09-19T11:54:18.268Z,215
2016-09-19T11:55:17.263Z,215
2016-09-19T11:56:17.931Z,220
2016-09-19T11:57:18.205Z,225
2016-09-19T11:58:17.585Z,235
2016-09-19T11:59:18.217Z,240
2016-09-19T12:00:18.178Z,240
2016-09-19T12:01:17.924Z,240
2016-09-19T12:02:18.455Z,245
2016-09-19T12:03:18.490Z,245
2016-09-19T12:04:17.853Z,240
2016-09-19T12:05:17.823Z,245
2016-09-19T12:06:18.271Z,240
2016-09-19T12:07:18.443Z,245
2016-09-19T12:08:17.803Z,250
2016-09-19T12:09:17.831Z,245
2016-09-19T12:10:17.793Z,245
2016-09-19T12:11:17.782Z,250
2016-09-19T12:12:18.072Z,240
2016-09-19T12:13:18.083Z,240
2016-09-19T12:14:17.754Z,240
2016-09-19T12:15:18.054Z,245
2016-09-19T12:16:18.043Z,245
2016-09-19T12:17:18.343Z,245
2016-09-19T12:18:18.043Z,240
2016-09-19T12:19:17.694Z,235
2016-09-19T12:20:18.332Z,230
2016-09-19T12:21:18.000Z,225
2016-09-19T12:22:17.672Z,220
2016-09-19T12:23:17.992Z,215
2016-09-19T12:24:17.664Z,215
2016-09-19T12:25:17.693Z,215
2016-09-19T12:26:18.377Z,215
2016-09-19T12:27:18.285Z,215
2016-09-19T12:28:16.975Z,210
2016-09-19T12:29:17.704Z,210
2016-09-19T12:30:17.663Z,205
2016-09-19T12:31:17.953Z,205
2016-09-19T12:32:18.245Z,205
2016-09-19T12:33:18.235Z,205
2016-09-19T12:34:17.880Z,210
2016-09-19T12:35:17.262Z,215
2016-09-19T12:36:17.863Z,215
2016-09-19T12:37:18.187Z,220
2016-09-19T12:38:17.881Z,225
2016-09-19T12:39:18.214Z,235
2016-09-19T12:40:18.148Z,235
2016-09-19T12:41:18.135Z,230
2016-09-19T12:42:17.821Z,230
2016-09-19T12:43:16.853Z,235
2016-09-19T12:44:17.807Z,245
2016-09-19T12:45:17.794Z,235
2016-09-19T12:46:17.820Z,240
2016-09-19T12:47:17.803Z,245
2016-09-19T12:48:17.768Z,245
2016-09-19T12:49:18.069Z,235
2016-09-19T12:50:17.764Z,245
2016-09-19T12:51:17.424Z,230
2016-09-19T12:52:17.734Z,235
2016-09-19T12:53:18.073Z,235
2016-09-19T12:54:17.085Z,235
2016-09-19T12:55:17.704Z,255
2016-09-19T12:56:17.693Z,265
2016-09-19T12:57:17.365Z,255
2016-09-19T12:58:17.995Z,265
2016-09-19T12:59:17.349Z,265
2016-09-19T13:00:17.344Z,240
2016-09-19T13:01:17.715Z,235
2016-09-19T13:02:17.364Z,235
2016-09-19T13:03:17.953Z,220
2016-09-19T13:04:17.535Z,215
2016-09-19T13:05:17.595Z,215
2016-09-19T13:06:17.104Z,215
2016-09-19T13:07:17.275Z,220
2016-09-19T13:08:17.264Z,210
2016-09-19T13:09:17.605Z,215
2016-09-19T13:10:17.696Z,200
2016-09-19T13:11:17.563Z,200
2016-09-19T13:12:17.576Z,195
2016-09-19T13:13:17.545Z,190
2016-09-19T13:14:17.586Z,195
2016-09-19T13:15:17.968Z,190
2016-09-19T13:16:17.555Z,185
2016-09-19T13:17:17.528Z,180
2016-09-19T13:18:17.844Z,175
2016-09-19T13:19:16.866Z,170
2016-09-19T13:20:17.483Z,165
2016-09-19T13:21:17.481Z,160
2016-09-19T13:22:17.798Z,155
2016-09-19T13:23:17.864Z,160
2016-09-19T13:24:17.450Z,155
2016-09-19T13:25:17.438Z,155
2016-09-19T13:26:17.105Z,145
2016-09-19T13:27:17.419Z,140
2016-09-19T13:28:17.778Z,135
2016-09-19T13:29:17.092Z,130
2016-09-19T13:30:17.393Z,130
2016-09-19T13:31:17.076Z,125
2016-09-19T13:32:17.058Z,120
2016-09-19T13:33:17.684Z,120
2016-09-19T13:34:16.448Z,120
2016-09-19T13:35:17.676Z,115
2016-09-19T13:36:17.658Z,115
2016-09-19T13:37:17.333Z,115
2016-09-19T13:38:17.333Z,115
2016-09-19T13:39:17.304Z,115
2016-09-19T13:40:17.345Z,115
2016-09-19T13:41:17.305Z,115
2016-09-19T13:42:17.306Z,115
2016-09-19T13:43:16.964Z,115
2016-09-19T13:44:17.275Z,115
2016-09-19T13:45:16.639Z,115
2016-09-19T13:46:17.244Z,115
2016-09-19T13:47:16.908Z,115
2016-09-19T13:48:17.244Z,115
2016-09-19T13:49:17.525Z,110
2016-09-19T13:50:17.207Z,110
2016-09-19T13:51:16.878Z,110
2016-09-19T13:52:17.204Z,110
2016-09-19T13:53:17.173Z,110
2016-09-19T13:54:16.926Z,110
2016-09-19T13:55:16.205Z,105
2016-09-19T13:56:17.498Z,105
2016-09-19T13:57:17.154Z,105
2016-09-19T13:58:17.144Z,105
2016-09-19T13:59:17.137Z,100
2016-09-19T14:00:17.128Z,100
2016-09-19T14:01:16.792Z,100
2016-09-19T14:02:16.784Z,100
2016-09-19T14:03:17.073Z,100
2016-09-19T14:04:17.404Z,100
2016-09-19T14:05:16.745Z,100
2016-09-19T14:06:17.056Z,95
2016-09-19T14:07:17.040Z,95